sensor_id;sensor_type;location;lat;lon;timestamp;P1;durP1;ratioP1;P2;durP2;ratioP2
15936;SDS011;9163;48.818;8.976;2022-09-03T00:00:07;3.03;;;1.50;;
15936;SDS011;9163;48.818;8.976;2022-09-03T00:02:40;2.97;;;1.57;;
15936;SDS011;9163;48.818;8.976;2022-09-03T00:05:15;4.13;;;1.47;;
15936;SDS011;9163;48.818;8.976;2022-09-03T00:07:50;2.77;;;1.60;;
15936;SDS011;9163;48.818;8.976;2022-09-03T00:10:25;3.73;;;1.80;;
15936;SDS011;9163;48.818;8.976;2022-09-03T00:12:56;4.40;;;1.90;;
15936;SDS011;9163;48.818;8.976;2022-09-03T00:15:27;2.90;;;1.50;;
15936;SDS011;9163;48.818;8.976;2022-09-03T00:17:59;2.37;;;1.70;;
15936;SDS011;9163;48.818;8.976;2022-09-03T00:20:32;4.70;;;1.70;;
15936;SDS011;9163;48.818;8.976;2022-09-03T00:23:05;2.03;;;1.40;;
15936;SDS011;9163;48.818;8.976;2022-09-03T00:25:37;2.23;;;1.43;;
15936;SDS011;9163;48.818;8.976;2022-09-03T00:28:08;2.57;;;1.30;;
15936;SDS011;9163;48.818;8.976;2022-09-03T00:30:39;2.63;;;1.50;;
15936;SDS011;9163;48.818;8.976;2022-09-03T00:33:11;3.40;;;1.60;;
15936;SDS011;9163;48.818;8.976;2022-09-03T00:35:45;3.37;;;1.87;;
15936;SDS011;9163;48.818;8.976;2022-09-03T00:38:15;2.70;;;1.47;;
15936;SDS011;9163;48.818;8.976;2022-09-03T00:40:46;2.37;;;1.60;;
15936;SDS011;9163;48.818;8.976;2022-09-03T00:43:24;2.37;;;1.73;;
15936;SDS011;9163;48.818;8.976;2022-09-03T00:46:04;3.97;;;1.63;;
15936;SDS011;9163;48.818;8.976;2022-09-03T00:48:55;2.90;;;1.80;;
15936;SDS011;9163;48.818;8.976;2022-09-03T00:51:37;4.73;;;1.70;;
15936;SDS011;9163;48.818;8.976;2022-09-03T00:54:12;2.60;;;1.60;;
15936;SDS011;9163;48.818;8.976;2022-09-03T00:56:47;4.63;;;1.50;;
15936;SDS011;9163;48.818;8.976;2022-09-03T00:59:23;1.90;;;1.30;;
15936;SDS011;9163;48.818;8.976;2022-09-03T01:02:01;1.97;;;1.30;;
15936;SDS011;9163;48.818;8.976;2022-09-03T01:04:41;3.37;;;1.27;;
15936;SDS011;9163;48.818;8.976;2022-09-03T01:07:19;3.30;;;1.40;;
15936;SDS011;9163;48.818;8.976;2022-09-03T01:09:59;2.27;;;1.40;;
15936;SDS011;9163;48.818;8.976;2022-09-03T01:12:38;2.23;;;1.50;;
15936;SDS011;9163;48.818;8.976;2022-09-03T01:15:14;3.37;;;1.50;;
15936;SDS011;9163;48.818;8.976;2022-09-03T01:17:53;3.10;;;1.60;;
15936;SDS011;9163;48.818;8.976;2022-09-03T01:20:49;6.50;;;1.77;;
15936;SDS011;9163;48.818;8.976;2022-09-03T01:23:37;3.67;;;1.83;;
15936;SDS011;9163;48.818;8.976;2022-09-03T01:26:34;2.17;;;1.60;;
15936;SDS011;9163;48.818;8.976;2022-09-03T01:29:14;3.40;;;1.70;;
15936;SDS011;9163;48.818;8.976;2022-09-03T01:31:50;3.57;;;1.73;;
15936;SDS011;9163;48.818;8.976;2022-09-03T01:34:33;3.13;;;1.90;;
15936;SDS011;9163;48.818;8.976;2022-09-03T01:37:13;4.33;;;1.77;;
15936;SDS011;9163;48.818;8.976;2022-09-03T01:39:49;3.50;;;2.00;;
15936;SDS011;9163;48.818;8.976;2022-09-03T01:42:28;4.47;;;2.00;;
15936;SDS011;9163;48.818;8.976;2022-09-03T01:45:10;5.67;;;1.90;;
15936;SDS011;9163;48.818;8.976;2022-09-03T01:47:50;2.13;;;1.87;;
15936;SDS011;9163;48.818;8.976;2022-09-03T01:50:30;3.27;;;1.87;;
15936;SDS011;9163;48.818;8.976;2022-09-03T01:53:09;3.13;;;1.70;;
15936;SDS011;9163;48.818;8.976;2022-09-03T01:55:52;3.50;;;1.90;;
15936;SDS011;9163;48.818;8.976;2022-09-03T01:58:34;3.70;;;2.00;;
15936;SDS011;9163;48.818;8.976;2022-09-03T02:01:11;3.87;;;1.80;;
15936;SDS011;9163;48.818;8.976;2022-09-03T02:03:45;3.87;;;2.10;;
15936;SDS011;9163;48.818;8.976;2022-09-03T02:06:14;4.23;;;1.70;;
15936;SDS011;9163;48.818;8.976;2022-09-03T02:08:42;3.37;;;1.70;;
15936;SDS011;9163;48.818;8.976;2022-09-03T02:11:09;2.23;;;1.73;;
15936;SDS011;9163;48.818;8.976;2022-09-03T02:13:37;4.90;;;1.90;;
15936;SDS011;9163;48.818;8.976;2022-09-03T02:16:10;2.97;;;1.80;;
15936;SDS011;9163;48.818;8.976;2022-09-03T02:18:40;2.03;;;1.70;;
15936;SDS011;9163;48.818;8.976;2022-09-03T02:21:12;3.53;;;1.80;;
15936;SDS011;9163;48.818;8.976;2022-09-03T02:23:42;3.27;;;1.90;;
15936;SDS011;9163;48.818;8.976;2022-09-03T02:26:10;2.97;;;1.70;;
15936;SDS011;9163;48.818;8.976;2022-09-03T02:28:38;2.37;;;1.60;;
15936;SDS011;9163;48.818;8.976;2022-09-03T02:31:06;2.27;;;1.70;;
15936;SDS011;9163;48.818;8.976;2022-09-03T02:33:36;3.63;;;1.90;;
15936;SDS011;9163;48.818;8.976;2022-09-03T02:36:05;3.00;;;1.80;;
15936;SDS011;9163;48.818;8.976;2022-09-03T02:38:34;2.40;;;1.77;;
15936;SDS011;9163;48.818;8.976;2022-09-03T02:41:02;3.13;;;1.80;;
15936;SDS011;9163;48.818;8.976;2022-09-03T02:43:30;3.83;;;1.90;;
15936;SDS011;9163;48.818;8.976;2022-09-03T02:46:03;3.13;;;2.00;;
15936;SDS011;9163;48.818;8.976;2022-09-03T02:48:35;4.30;;;1.77;;
15936;SDS011;9163;48.818;8.976;2022-09-03T02:51:02;2.13;;;1.70;;
15936;SDS011;9163;48.818;8.976;2022-09-03T02:53:30;3.13;;;1.80;;
15936;SDS011;9163;48.818;8.976;2022-09-03T02:55:58;3.77;;;1.80;;
15936;SDS011;9163;48.818;8.976;2022-09-03T02:58:25;2.60;;;1.70;;
15936;SDS011;9163;48.818;8.976;2022-09-03T03:00:53;2.10;;;1.87;;
15936;SDS011;9163;48.818;8.976;2022-09-03T03:03:21;2.87;;;1.50;;
15936;SDS011;9163;48.818;8.976;2022-09-03T03:05:50;3.23;;;1.83;;
15936;SDS011;9163;48.818;8.976;2022-09-03T03:08:22;2.83;;;1.63;;
15936;SDS011;9163;48.818;8.976;2022-09-03T03:10:52;2.93;;;1.90;;
15936;SDS011;9163;48.818;8.976;2022-09-03T03:13:23;2.43;;;1.70;;
15936;SDS011;9163;48.818;8.976;2022-09-03T03:15:50;3.13;;;1.90;;
15936;SDS011;9163;48.818;8.976;2022-09-03T03:18:21;2.40;;;1.87;;
15936;SDS011;9163;48.818;8.976;2022-09-03T03:20:50;2.40;;;1.80;;
15936;SDS011;9163;48.818;8.976;2022-09-03T03:23:18;3.77;;;2.00;;
15936;SDS011;9163;48.818;8.976;2022-09-03T03:25:45;2.73;;;1.80;;
15936;SDS011;9163;48.818;8.976;2022-09-03T03:28:12;2.67;;;2.20;;
15936;SDS011;9163;48.818;8.976;2022-09-03T03:30:40;3.87;;;2.23;;
15936;SDS011;9163;48.818;8.976;2022-09-03T03:33:11;2.97;;;2.50;;
15936;SDS011;9163;48.818;8.976;2022-09-03T03:35:39;3.83;;;2.90;;
15936;SDS011;9163;48.818;8.976;2022-09-03T03:38:08;4.53;;;2.97;;
15936;SDS011;9163;48.818;8.976;2022-09-03T03:40:36;3.03;;;2.60;;
15936;SDS011;9163;48.818;8.976;2022-09-03T03:43:03;5.80;;;2.70;;
15936;SDS011;9163;48.818;8.976;2022-09-03T03:45:31;4.60;;;2.60;;
15936;SDS011;9163;48.818;8.976;2022-09-03T03:47:58;4.17;;;2.53;;
15936;SDS011;9163;48.818;8.976;2022-09-03T03:50:25;6.43;;;2.60;;
15936;SDS011;9163;48.818;8.976;2022-09-03T03:52:53;2.53;;;2.30;;
15936;SDS011;9163;48.818;8.976;2022-09-03T03:55:22;3.90;;;2.43;;
15936;SDS011;9163;48.818;8.976;2022-09-03T03:57:49;2.63;;;2.10;;
15936;SDS011;9163;48.818;8.976;2022-09-03T04:00:17;3.23;;;2.10;;
15936;SDS011;9163;48.818;8.976;2022-09-03T04:02:44;4.00;;;2.30;;
15936;SDS011;9163;48.818;8.976;2022-09-03T04:05:11;3.57;;;2.27;;
15936;SDS011;9163;48.818;8.976;2022-09-03T04:07:39;4.57;;;2.47;;
15936;SDS011;9163;48.818;8.976;2022-09-03T04:10:08;3.33;;;2.27;;
15936;SDS011;9163;48.818;8.976;2022-09-03T04:12:37;3.80;;;2.37;;
15936;SDS011;9163;48.818;8.976;2022-09-03T04:15:04;5.93;;;2.60;;
15936;SDS011;9163;48.818;8.976;2022-09-03T04:17:32;3.17;;;2.30;;
15936;SDS011;9163;48.818;8.976;2022-09-03T04:19:59;4.33;;;2.57;;
15936;SDS011;9163;48.818;8.976;2022-09-03T04:22:27;3.83;;;2.60;;
15936;SDS011;9163;48.818;8.976;2022-09-03T04:24:55;3.87;;;2.63;;
15936;SDS011;9163;48.818;8.976;2022-09-03T04:27:22;5.70;;;3.13;;
15936;SDS011;9163;48.818;8.976;2022-09-03T04:29:51;3.73;;;2.90;;
15936;SDS011;9163;48.818;8.976;2022-09-03T04:32:18;4.30;;;2.90;;
15936;SDS011;9163;48.818;8.976;2022-09-03T04:34:59;5.93;;;3.17;;
15936;SDS011;9163;48.818;8.976;2022-09-03T04:37:26;5.83;;;2.93;;
15936;SDS011;9163;48.818;8.976;2022-09-03T04:39:54;4.23;;;3.27;;
15936;SDS011;9163;48.818;8.976;2022-09-03T04:42:21;3.33;;;3.03;;
15936;SDS011;9163;48.818;8.976;2022-09-03T04:44:50;4.63;;;2.60;;
15936;SDS011;9163;48.818;8.976;2022-09-03T04:47:17;4.20;;;3.00;;
15936;SDS011;9163;48.818;8.976;2022-09-03T04:49:45;4.27;;;3.07;;
15936;SDS011;9163;48.818;8.976;2022-09-03T04:52:12;6.20;;;3.93;;
15936;SDS011;9163;48.818;8.976;2022-09-03T04:54:39;4.47;;;3.47;;
15936;SDS011;9163;48.818;8.976;2022-09-03T04:57:06;4.27;;;3.87;;
15936;SDS011;9163;48.818;8.976;2022-09-03T04:59:34;4.53;;;3.90;;
15936;SDS011;9163;48.818;8.976;2022-09-03T05:02:03;5.63;;;4.07;;
15936;SDS011;9163;48.818;8.976;2022-09-03T05:04:30;5.07;;;4.27;;
15936;SDS011;9163;48.818;8.976;2022-09-03T05:06:58;4.40;;;4.00;;
15936;SDS011;9163;48.818;8.976;2022-09-03T05:09:25;4.53;;;4.10;;
15936;SDS011;9163;48.818;8.976;2022-09-03T05:11:52;5.73;;;4.33;;
15936;SDS011;9163;48.818;8.976;2022-09-03T05:14:20;5.67;;;4.60;;
15936;SDS011;9163;48.818;8.976;2022-09-03T05:16:47;6.90;;;4.83;;
15936;SDS011;9163;48.818;8.976;2022-09-03T05:19:16;5.77;;;4.73;;
15936;SDS011;9163;48.818;8.976;2022-09-03T05:21:43;5.00;;;4.60;;
15936;SDS011;9163;48.818;8.976;2022-09-03T05:24:10;5.33;;;4.43;;
15936;SDS011;9163;48.818;8.976;2022-09-03T05:26:39;6.53;;;4.47;;
15936;SDS011;9163;48.818;8.976;2022-09-03T05:29:06;4.93;;;4.53;;
15936;SDS011;9163;48.818;8.976;2022-09-03T05:31:35;5.00;;;4.47;;
15936;SDS011;9163;48.818;8.976;2022-09-03T05:34:04;5.90;;;4.60;;
15936;SDS011;9163;48.818;8.976;2022-09-03T05:36:34;5.53;;;4.70;;
15936;SDS011;9163;48.818;8.976;2022-09-03T05:39:03;5.60;;;4.47;;
15936;SDS011;9163;48.818;8.976;2022-09-03T05:41:30;5.87;;;4.37;;
15936;SDS011;9163;48.818;8.976;2022-09-03T05:43:58;5.30;;;4.80;;
15936;SDS011;9163;48.818;8.976;2022-09-03T05:46:26;5.30;;;4.80;;
15936;SDS011;9163;48.818;8.976;2022-09-03T05:48:56;5.30;;;4.80;;
15936;SDS011;9163;48.818;8.976;2022-09-03T05:51:24;5.47;;;4.83;;
15936;SDS011;9163;48.818;8.976;2022-09-03T05:53:53;5.97;;;5.33;;
15936;SDS011;9163;48.818;8.976;2022-09-03T05:56:21;6.07;;;4.73;;
15936;SDS011;9163;48.818;8.976;2022-09-03T05:58:52;6.20;;;5.03;;
15936;SDS011;9163;48.818;8.976;2022-09-03T06:01:22;7.90;;;5.43;;
15936;SDS011;9163;48.818;8.976;2022-09-03T06:03:52;6.07;;;4.87;;
15936;SDS011;9163;48.818;8.976;2022-09-03T06:06:21;8.07;;;5.10;;
15936;SDS011;9163;48.818;8.976;2022-09-03T06:08:50;5.60;;;5.00;;
15936;SDS011;9163;48.818;8.976;2022-09-03T06:11:19;6.03;;;4.80;;
15936;SDS011;9163;48.818;8.976;2022-09-03T06:13:50;8.10;;;5.77;;
15936;SDS011;9163;48.818;8.976;2022-09-03T06:16:17;5.20;;;4.70;;
15936;SDS011;9163;48.818;8.976;2022-09-03T06:18:44;6.33;;;4.70;;
15936;SDS011;9163;48.818;8.976;2022-09-03T06:21:11;5.20;;;4.63;;
15936;SDS011;9163;48.818;8.976;2022-09-03T06:23:39;6.20;;;4.20;;
15936;SDS011;9163;48.818;8.976;2022-09-03T06:26:09;5.27;;;4.60;;
15936;SDS011;9163;48.818;8.976;2022-09-03T06:28:38;5.40;;;4.50;;
15936;SDS011;9163;48.818;8.976;2022-09-03T06:31:08;4.90;;;4.50;;
15936;SDS011;9163;48.818;8.976;2022-09-03T06:33:38;5.40;;;4.70;;
15936;SDS011;9163;48.818;8.976;2022-09-03T06:36:07;4.60;;;4.20;;
15936;SDS011;9163;48.818;8.976;2022-09-03T06:38:36;5.67;;;4.50;;
15936;SDS011;9163;48.818;8.976;2022-09-03T06:41:05;5.37;;;4.83;;
15936;SDS011;9163;48.818;8.976;2022-09-03T06:43:35;6.47;;;4.73;;
15936;SDS011;9163;48.818;8.976;2022-09-03T06:46:04;6.40;;;5.07;;
15936;SDS011;9163;48.818;8.976;2022-09-03T06:48:34;6.60;;;5.30;;
15936;SDS011;9163;48.818;8.976;2022-09-03T06:51:04;6.23;;;5.13;;
15936;SDS011;9163;48.818;8.976;2022-09-03T06:53:34;5.80;;;5.27;;
15936;SDS011;9163;48.818;8.976;2022-09-03T06:56:03;6.07;;;5.40;;
15936;SDS011;9163;48.818;8.976;2022-09-03T06:58:32;5.93;;;5.33;;
15936;SDS011;9163;48.818;8.976;2022-09-03T07:01:02;7.60;;;5.00;;
15936;SDS011;9163;48.818;8.976;2022-09-03T07:03:31;5.67;;;5.17;;
15936;SDS011;9163;48.818;8.976;2022-09-03T07:05:59;6.70;;;5.30;;
15936;SDS011;9163;48.818;8.976;2022-09-03T07:08:27;5.87;;;5.17;;
15936;SDS011;9163;48.818;8.976;2022-09-03T07:10:57;6.83;;;4.60;;
15936;SDS011;9163;48.818;8.976;2022-09-03T07:13:24;5.43;;;4.77;;
15936;SDS011;9163;48.818;8.976;2022-09-03T07:16:00;5.10;;;4.67;;
15936;SDS011;9163;48.818;8.976;2022-09-03T07:18:28;5.33;;;4.40;;
15936;SDS011;9163;48.818;8.976;2022-09-03T07:20:57;5.00;;;4.60;;
15936;SDS011;9163;48.818;8.976;2022-09-03T07:23:25;5.23;;;4.53;;
15936;SDS011;9163;48.818;8.976;2022-09-03T07:25:53;7.17;;;4.80;;
15936;SDS011;9163;48.818;8.976;2022-09-03T07:28:21;5.03;;;4.57;;
15936;SDS011;9163;48.818;8.976;2022-09-03T07:30:49;8.07;;;6.00;;
15936;SDS011;9163;48.818;8.976;2022-09-03T07:33:18;5.00;;;4.40;;
15936;SDS011;9163;48.818;8.976;2022-09-03T07:35:47;8.50;;;4.70;;
15936;SDS011;9163;48.818;8.976;2022-09-03T07:38:16;6.43;;;5.03;;
15936;SDS011;9163;48.818;8.976;2022-09-03T07:40:44;4.90;;;3.83;;
15936;SDS011;9163;48.818;8.976;2022-09-03T07:43:12;4.83;;;3.93;;
15936;SDS011;9163;48.818;8.976;2022-09-03T07:45:39;4.77;;;3.60;;
15936;SDS011;9163;48.818;8.976;2022-09-03T07:48:11;5.50;;;3.87;;
15936;SDS011;9163;48.818;8.976;2022-09-03T07:50:39;3.87;;;3.30;;
15936;SDS011;9163;48.818;8.976;2022-09-03T07:53:06;4.77;;;4.37;;
15936;SDS011;9163;48.818;8.976;2022-09-03T07:55:34;4.30;;;3.73;;
15936;SDS011;9163;48.818;8.976;2022-09-03T07:58:01;3.80;;;2.93;;
15936;SDS011;9163;48.818;8.976;2022-09-03T08:00:28;3.20;;;2.90;;
15936;SDS011;9163;48.818;8.976;2022-09-03T08:02:58;5.13;;;3.13;;
15936;SDS011;9163;48.818;8.976;2022-09-03T08:05:31;4.73;;;2.93;;
15936;SDS011;9163;48.818;8.976;2022-09-03T08:08:00;3.30;;;3.00;;
15936;SDS011;9163;48.818;8.976;2022-09-03T08:10:27;4.10;;;3.23;;
15936;SDS011;9163;48.818;8.976;2022-09-03T08:12:55;5.17;;;3.10;;
15936;SDS011;9163;48.818;8.976;2022-09-03T08:15:23;6.10;;;3.17;;
15936;SDS011;9163;48.818;8.976;2022-09-03T08:17:51;5.77;;;3.40;;
15936;SDS011;9163;48.818;8.976;2022-09-03T08:20:18;4.10;;;3.00;;
15936;SDS011;9163;48.818;8.976;2022-09-03T08:22:46;3.23;;;2.90;;
15936;SDS011;9163;48.818;8.976;2022-09-03T08:25:15;5.30;;;3.10;;
15936;SDS011;9163;48.818;8.976;2022-09-03T08:27:42;4.93;;;3.13;;
15936;SDS011;9163;48.818;8.976;2022-09-03T08:30:10;4.10;;;2.87;;
15936;SDS011;9163;48.818;8.976;2022-09-03T08:32:37;3.20;;;2.83;;
15936;SDS011;9163;48.818;8.976;2022-09-03T08:35:05;12.87;;;3.60;;
15936;SDS011;9163;48.818;8.976;2022-09-03T08:37:34;4.07;;;2.97;;
15936;SDS011;9163;48.818;8.976;2022-09-03T08:40:02;4.37;;;2.77;;
15936;SDS011;9163;48.818;8.976;2022-09-03T08:42:34;4.47;;;3.00;;
15936;SDS011;9163;48.818;8.976;2022-09-03T08:45:12;2.93;;;2.73;;
15936;SDS011;9163;48.818;8.976;2022-09-03T08:47:44;2.93;;;2.63;;
15936;SDS011;9163;48.818;8.976;2022-09-03T08:50:17;3.60;;;3.00;;
15936;SDS011;9163;48.818;8.976;2022-09-03T08:52:50;3.00;;;2.80;;
15936;SDS011;9163;48.818;8.976;2022-09-03T08:55:28;6.17;;;2.83;;
15936;SDS011;9163;48.818;8.976;2022-09-03T08:58:02;3.40;;;3.10;;
15936;SDS011;9163;48.818;8.976;2022-09-03T09:00:37;5.20;;;2.97;;
15936;SDS011;9163;48.818;8.976;2022-09-03T09:03:17;4.30;;;2.70;;
15936;SDS011;9163;48.818;8.976;2022-09-03T09:05:58;2.93;;;2.70;;
15936;SDS011;9163;48.818;8.976;2022-09-03T09:08:34;4.40;;;2.70;;
15936;SDS011;9163;48.818;8.976;2022-09-03T09:11:10;4.93;;;2.70;;
15936;SDS011;9163;48.818;8.976;2022-09-03T09:13:49;3.07;;;2.60;;
15936;SDS011;9163;48.818;8.976;2022-09-03T09:16:22;4.87;;;2.60;;
15936;SDS011;9163;48.818;8.976;2022-09-03T09:19:05;3.78;;;2.50;;
15936;SDS011;9163;48.818;8.976;2022-09-03T09:21:48;3.00;;;2.45;;
15936;SDS011;9163;48.818;8.976;2022-09-03T09:24:21;4.70;;;2.80;;
15936;SDS011;9163;48.818;8.976;2022-09-03T09:26:54;3.45;;;2.60;;
15936;SDS011;9163;48.818;8.976;2022-09-03T09:29:26;3.47;;;2.50;;
15936;SDS011;9163;48.818;8.976;2022-09-03T09:31:57;2.88;;;2.55;;
15936;SDS011;9163;48.818;8.976;2022-09-03T09:34:25;2.70;;;2.50;;
15936;SDS011;9163;48.818;8.976;2022-09-03T09:36:53;4.75;;;2.17;;
15936;SDS011;9163;48.818;8.976;2022-09-03T09:39:21;3.15;;;2.40;;
15936;SDS011;9163;48.818;8.976;2022-09-03T09:41:58;4.60;;;2.22;;
15936;SDS011;9163;48.818;8.976;2022-09-03T09:44:35;2.97;;;2.67;;
15936;SDS011;9163;48.818;8.976;2022-09-03T09:47:06;3.83;;;2.50;;
15936;SDS011;9163;48.818;8.976;2022-09-03T09:49:37;3.20;;;2.90;;
15936;SDS011;9163;48.818;8.976;2022-09-03T09:52:18;3.58;;;2.60;;
15936;SDS011;9163;48.818;8.976;2022-09-03T09:54:50;3.88;;;2.90;;
15936;SDS011;9163;48.818;8.976;2022-09-03T09:57:22;3.88;;;2.60;;
15936;SDS011;9163;48.818;8.976;2022-09-03T10:00:02;3.00;;;2.70;;
15936;SDS011;9163;48.818;8.976;2022-09-03T10:02:34;3.50;;;2.60;;
15936;SDS011;9163;48.818;8.976;2022-09-03T10:05:12;3.38;;;2.75;;
15936;SDS011;9163;48.818;8.976;2022-09-03T10:07:41;3.10;;;2.80;;
15936;SDS011;9163;48.818;8.976;2022-09-03T10:10:13;3.55;;;2.60;;
15936;SDS011;9163;48.818;8.976;2022-09-03T10:12:44;5.28;;;2.45;;
15936;SDS011;9163;48.818;8.976;2022-09-03T10:15:22;3.13;;;2.35;;
15936;SDS011;9163;48.818;8.976;2022-09-03T10:17:56;3.28;;;2.63;;
15936;SDS011;9163;48.818;8.976;2022-09-03T10:20:33;4.05;;;2.40;;
15936;SDS011;9163;48.818;8.976;2022-09-03T10:23:10;3.92;;;2.38;;
15936;SDS011;9163;48.818;8.976;2022-09-03T10:25:43;3.55;;;2.53;;
15936;SDS011;9163;48.818;8.976;2022-09-03T10:28:21;3.40;;;2.60;;
15936;SDS011;9163;48.818;8.976;2022-09-03T10:30:58;5.78;;;2.80;;
15936;SDS011;9163;48.818;8.976;2022-09-03T10:33:50;3.95;;;2.70;;
15936;SDS011;9163;48.818;8.976;2022-09-03T10:36:22;6.22;;;2.58;;
15936;SDS011;9163;48.818;8.976;2022-09-03T10:38:52;3.30;;;2.60;;
15936;SDS011;9163;48.818;8.976;2022-09-03T10:41:30;3.25;;;2.45;;
15936;SDS011;9163;48.818;8.976;2022-09-03T10:44:14;4.82;;;2.60;;
15936;SDS011;9163;48.818;8.976;2022-09-03T10:46:55;3.17;;;2.65;;
15936;SDS011;9163;48.818;8.976;2022-09-03T10:49:41;2.97;;;2.63;;
15936;SDS011;9163;48.818;8.976;2022-09-03T10:52:17;2.78;;;2.58;;
15936;SDS011;9163;48.818;8.976;2022-09-03T10:55:03;2.90;;;2.63;;
15936;SDS011;9163;48.818;8.976;2022-09-03T10:57:43;3.33;;;2.90;;
15936;SDS011;9163;48.818;8.976;2022-09-03T11:00:16;4.32;;;3.10;;
15936;SDS011;9163;48.818;8.976;2022-09-03T11:02:59;4.25;;;2.78;;
15936;SDS011;9163;48.818;8.976;2022-09-03T11:05:40;3.00;;;2.67;;
15936;SDS011;9163;48.818;8.976;2022-09-03T11:08:15;3.53;;;3.00;;
15936;SDS011;9163;48.818;8.976;2022-09-03T11:10:48;2.80;;;2.60;;
15936;SDS011;9163;48.818;8.976;2022-09-03T11:13:20;3.33;;;3.03;;
15936;SDS011;9163;48.818;8.976;2022-09-03T11:15:52;5.32;;;3.05;;
15936;SDS011;9163;48.818;8.976;2022-09-03T11:18:23;4.65;;;3.20;;
15936;SDS011;9163;48.818;8.976;2022-09-03T11:20:55;4.30;;;3.25;;
15936;SDS011;9163;48.818;8.976;2022-09-03T11:23:25;3.45;;;3.10;;
15936;SDS011;9163;48.818;8.976;2022-09-03T11:25:55;3.20;;;2.72;;
15936;SDS011;9163;48.818;8.976;2022-09-03T11:28:28;3.42;;;2.80;;
15936;SDS011;9163;48.818;8.976;2022-09-03T11:31:15;3.00;;;2.78;;
15936;SDS011;9163;48.818;8.976;2022-09-03T11:33:50;5.53;;;3.07;;
15936;SDS011;9163;48.818;8.976;2022-09-03T11:36:22;3.40;;;3.10;;
15936;SDS011;9163;48.818;8.976;2022-09-03T11:38:56;3.45;;;3.15;;
15936;SDS011;9163;48.818;8.976;2022-09-03T11:41:25;4.30;;;3.20;;
15936;SDS011;9163;48.818;8.976;2022-09-03T11:43:53;3.90;;;3.22;;
15936;SDS011;9163;48.818;8.976;2022-09-03T11:46:27;4.00;;;3.13;;
15936;SDS011;9163;48.818;8.976;2022-09-03T11:49:07;3.75;;;3.17;;
15936;SDS011;9163;48.818;8.976;2022-09-03T11:51:37;4.43;;;3.17;;
15936;SDS011;9163;48.818;8.976;2022-09-03T11:54:22;3.40;;;3.03;;
15936;SDS011;9163;48.818;8.976;2022-09-03T11:57:02;3.07;;;2.77;;
15936;SDS011;9163;48.818;8.976;2022-09-03T11:59:36;3.20;;;2.90;;
15936;SDS011;9163;48.818;8.976;2022-09-03T12:02:05;5.47;;;3.10;;
15936;SDS011;9163;48.818;8.976;2022-09-03T12:04:45;4.53;;;3.70;;
15936;SDS011;9163;48.818;8.976;2022-09-03T12:07:25;4.20;;;3.83;;
15936;SDS011;9163;48.818;8.976;2022-09-03T12:10:17;4.53;;;3.53;;
15936;SDS011;9163;48.818;8.976;2022-09-03T12:13:01;4.37;;;3.50;;
15936;SDS011;9163;48.818;8.976;2022-09-03T12:18:50;7.17;;;4.50;;
15936;SDS011;9163;48.818;8.976;2022-09-03T12:21:23;9.00;;;7.63;;
15936;SDS011;9163;48.818;8.976;2022-09-03T12:23:52;4.40;;;4.00;;
15936;SDS011;9163;48.818;8.976;2022-09-03T12:26:21;8.23;;;5.50;;
15936;SDS011;9163;48.818;8.976;2022-09-03T12:28:51;2.53;;;1.60;;
15936;SDS011;9163;48.818;8.976;2022-09-03T12:31:20;3.43;;;1.90;;
15936;SDS011;9163;48.818;8.976;2022-09-03T12:33:50;2.30;;;1.40;;
15936;SDS011;9163;48.818;8.976;2022-09-03T12:36:19;2.87;;;1.10;;
15936;SDS011;9163;48.818;8.976;2022-09-03T12:38:49;2.93;;;1.30;;
15936;SDS011;9163;48.818;8.976;2022-09-03T12:41:20;4.37;;;1.40;;
15936;SDS011;9163;48.818;8.976;2022-09-03T12:43:51;2.73;;;1.30;;
15936;SDS011;9163;48.818;8.976;2022-09-03T12:46:23;2.47;;;1.03;;
15936;SDS011;9163;48.818;8.976;2022-09-03T12:48:56;3.97;;;1.60;;
15936;SDS011;9163;48.818;8.976;2022-09-03T12:51:32;4.60;;;1.40;;
15936;SDS011;9163;48.818;8.976;2022-09-03T12:54:02;3.43;;;1.50;;
15936;SDS011;9163;48.818;8.976;2022-09-03T12:56:32;3.80;;;1.33;;
15936;SDS011;9163;48.818;8.976;2022-09-03T12:59:00;3.47;;;1.60;;
15936;SDS011;9163;48.818;8.976;2022-09-03T13:01:31;4.03;;;1.50;;
15936;SDS011;9163;48.818;8.976;2022-09-03T13:04:02;2.33;;;1.40;;
15936;SDS011;9163;48.818;8.976;2022-09-03T13:06:39;2.67;;;1.60;;
15936;SDS011;9163;48.818;8.976;2022-09-03T13:09:17;3.20;;;1.30;;
15936;SDS011;9163;48.818;8.976;2022-09-03T13:11:46;1.90;;;1.20;;
15936;SDS011;9163;48.818;8.976;2022-09-03T13:14:15;2.03;;;1.20;;
15936;SDS011;9163;48.818;8.976;2022-09-03T13:16:47;1.17;;;1.00;;
15936;SDS011;9163;48.818;8.976;2022-09-03T13:19:33;1.20;;;1.10;;
15936;SDS011;9163;48.818;8.976;2022-09-03T13:22:08;1.30;;;1.00;;
15936;SDS011;9163;48.818;8.976;2022-09-03T13:24:51;3.50;;;1.70;;
15936;SDS011;9163;48.818;8.976;2022-09-03T13:27:28;1.50;;;1.33;;
15936;SDS011;9163;48.818;8.976;2022-09-03T13:30:04;1.40;;;1.00;;
15936;SDS011;9163;48.818;8.976;2022-09-03T13:32:38;1.40;;;0.93;;
15936;SDS011;9163;48.818;8.976;2022-09-03T13:35:16;2.20;;;0.93;;
15936;SDS011;9163;48.818;8.976;2022-09-03T13:37:53;1.23;;;1.00;;
15936;SDS011;9163;48.818;8.976;2022-09-03T13:40:25;2.73;;;1.20;;
15936;SDS011;9163;48.818;8.976;2022-09-03T13:43:00;2.60;;;1.20;;
15936;SDS011;9163;48.818;8.976;2022-09-03T13:45:34;2.20;;;1.20;;
15936;SDS011;9163;48.818;8.976;2022-09-03T13:48:07;1.40;;;1.03;;
15936;SDS011;9163;48.818;8.976;2022-09-03T13:51:02;2.63;;;1.23;;
15936;SDS011;9163;48.818;8.976;2022-09-03T13:53:41;2.40;;;1.37;;
15936;SDS011;9163;48.818;8.976;2022-09-03T13:56:20;3.73;;;1.33;;
15936;SDS011;9163;48.818;8.976;2022-09-03T13:58:55;2.27;;;1.20;;
15936;SDS011;9163;48.818;8.976;2022-09-03T14:01:33;1.50;;;1.40;;
15936;SDS011;9163;48.818;8.976;2022-09-03T14:04:10;1.53;;;1.30;;
15936;SDS011;9163;48.818;8.976;2022-09-03T14:06:48;2.50;;;1.50;;
15936;SDS011;9163;48.818;8.976;2022-09-03T14:09:26;2.10;;;1.60;;
15936;SDS011;9163;48.818;8.976;2022-09-03T14:12:03;2.17;;;1.63;;
15936;SDS011;9163;48.818;8.976;2022-09-03T14:14:40;2.43;;;1.50;;
15936;SDS011;9163;48.818;8.976;2022-09-03T14:17:18;3.30;;;1.73;;
15936;SDS011;9163;48.818;8.976;2022-09-03T14:19:57;2.17;;;1.60;;
15936;SDS011;9163;48.818;8.976;2022-09-03T14:22:29;2.47;;;1.53;;
15936;SDS011;9163;48.818;8.976;2022-09-03T14:25:08;2.23;;;1.57;;
15936;SDS011;9163;48.818;8.976;2022-09-03T14:27:41;2.13;;;1.60;;
15936;SDS011;9163;48.818;8.976;2022-09-03T14:30:17;3.37;;;1.87;;
15936;SDS011;9163;48.818;8.976;2022-09-03T14:32:50;4.00;;;2.00;;
15936;SDS011;9163;48.818;8.976;2022-09-03T14:35:32;2.13;;;1.80;;
15936;SDS011;9163;48.818;8.976;2022-09-03T14:38:14;2.70;;;1.70;;
15936;SDS011;9163;48.818;8.976;2022-09-03T14:41:16;1.97;;;1.70;;
15936;SDS011;9163;48.818;8.976;2022-09-03T14:44:10;1.83;;;1.70;;
15936;SDS011;9163;48.818;8.976;2022-09-03T14:46:56;2.20;;;1.70;;
15936;SDS011;9163;48.818;8.976;2022-09-03T14:49:40;2.67;;;1.90;;
15936;SDS011;9163;48.818;8.976;2022-09-03T14:52:22;2.40;;;1.90;;
15936;SDS011;9163;48.818;8.976;2022-09-03T14:55:14;2.80;;;1.70;;
15936;SDS011;9163;48.818;8.976;2022-09-03T14:58:01;3.83;;;2.20;;
15936;SDS011;9163;48.818;8.976;2022-09-03T15:00:46;2.50;;;2.00;;
15936;SDS011;9163;48.818;8.976;2022-09-03T15:03:26;2.63;;;1.77;;
15936;SDS011;9163;48.818;8.976;2022-09-03T15:09:10;3.10;;;1.90;;
15936;SDS011;9163;48.818;8.976;2022-09-03T15:11:48;2.47;;;1.80;;
15936;SDS011;9163;48.818;8.976;2022-09-03T15:14:22;2.93;;;1.80;;
15936;SDS011;9163;48.818;8.976;2022-09-03T15:16:57;2.40;;;1.80;;
15936;SDS011;9163;48.818;8.976;2022-09-03T15:19:38;2.40;;;1.80;;
15936;SDS011;9163;48.818;8.976;2022-09-03T15:22:23;2.40;;;1.97;;
15936;SDS011;9163;48.818;8.976;2022-09-03T15:25:02;2.20;;;1.73;;
15936;SDS011;9163;48.818;8.976;2022-09-03T15:27:49;3.87;;;1.90;;
15936;SDS011;9163;48.818;8.976;2022-09-03T15:30:33;4.00;;;2.00;;
15936;SDS011;9163;48.818;8.976;2022-09-03T15:33:12;2.73;;;2.10;;
15936;SDS011;9163;48.818;8.976;2022-09-03T15:35:56;3.00;;;1.80;;
15936;SDS011;9163;48.818;8.976;2022-09-03T15:38:36;2.00;;;1.80;;
15936;SDS011;9163;48.818;8.976;2022-09-03T15:41:08;2.67;;;2.10;;